Hyundai Tacoma — V7DB9 — position and weather

sailwx.info

Track history (hours):
 
Tides and Currents Weather Stations Pressure Air Temp Water Temp Dewpoint Dewpoint Depression Visibility Wind Speed Wind Dir Waves Ship Positions

Hyundai Tacoma

Last reported at 2018-May-26 19:06 UTC. Time now 2018-May-28 05:03 UTC.
Position N 31°08' E 122°15'.

Length 293 m; draft 10.3 m.

Type: Cargo ship. MMSI: 538007259.

Date/timePositionNaut miles runAvg speedWind from/ knotsBaromVisibWave heightAir tempDewpointWater temp
2018-May-26 19:06N 31°08' E 122°15'111.8
2018-May-26 18:59N 31°09' E 122°14'712.0
2018-May-26 18:24N 31°13' E 122°07'512.1
2018-May-26 18:00N 31°14' E 122°02'611.9
2018-May-26 17:30N 31°15' E 121°55'19 9.4
2018-May-26 15:30N 31°23' E 121°35'1 0.1
2018-May-26 10:05N 31°23' E 121°34'0 0.1
2018-May-26 09:59N 31°23' E 121°34'0 0.0
2018-May-26 01:53N 31°23' E 121°34'0 0.0
2018-May-25 20:17N 31°23' E 121°34'0 0.1
2018-May-25 19:47N 31°23' E 121°34'0 0.0
2018-May-25 15:17N 31°23' E 121°34'0 0.4
2018-May-25 15:00N 31°23' E 121°34'1 2.2
2018-May-25 14:28N 31°24' E 121°34'3 5.6
2018-May-25 13:57N 31°23' E 121°37'8 9.2
2018-May-25 13:04N 31°19' E 121°45'110.7
2018-May-25 13:00N 31°18' E 121°46'6 9.9
2018-May-25 12:22N 31°16' E 121°53'4 9.9
2018-May-25 11:56N 31°15' E 121°58'410.3
2018-May-25 11:30N 31°14' E 122°03'610.8
2018-May-25 10:57N 31°12' E 122°09'510.6
2018-May-25 10:30N 31°09' E 122°13'611.6
2018-May-25 10:00N 31°06' E 122°19'611.1
2018-May-25 09:30N 31°07' E 122°26'23 1.5
2018-May-24 17:50N 31°01' E 122°52'2711.6
2018-May-24 15:33N 30°37' E 123°04'116.8
2018-May-24 15:30N 30°36' E 123°05'916.9
2018-May-24 15:00N 30°28' E 123°06'816.7
2018-May-24 14:30N 30°19' E 123°05'917.5
2018-May-24 13:59N 30°11' E 123°02'  
Track history (hours):
 
Tides and Currents Weather Stations Pressure Air Temp Water Temp Dewpoint Dewpoint Depression Visibility Wind Speed Wind Dir Waves Ship Positions

Hyundai Tacoma

Last reported at 2018-May-26 19:06 UTC. Time now 2018-May-28 05:03 UTC.
Position N 31°08' E 122°15'.

Length 293 m; draft 10.3 m.

Type: Cargo ship. MMSI: 538007259.

Date/timePositionNaut miles runAvg speedWind from/ knotsBaromVisibWave heightAir tempDewpointWater temp
2018-May-26 19:06N 31°08' E 122°15'111.8
2018-May-26 18:59N 31°09' E 122°14'712.0
2018-May-26 18:24N 31°13' E 122°07'512.1
2018-May-26 18:00N 31°14' E 122°02'611.9
2018-May-26 17:30N 31°15' E 121°55'19 9.4
2018-May-26 15:30N 31°23' E 121°35'1 0.1
2018-May-26 10:05N 31°23' E 121°34'0 0.1
2018-May-26 09:59N 31°23' E 121°34'0 0.0
2018-May-26 01:53N 31°23' E 121°34'0 0.0
2018-May-25 20:17N 31°23' E 121°34'0 0.1
2018-May-25 19:47N 31°23' E 121°34'0 0.0
2018-May-25 15:17N 31°23' E 121°34'0 0.4
2018-May-25 15:00N 31°23' E 121°34'1 2.2
2018-May-25 14:28N 31°24' E 121°34'3 5.6
2018-May-25 13:57N 31°23' E 121°37'8 9.2
2018-May-25 13:04N 31°19' E 121°45'110.7
2018-May-25 13:00N 31°18' E 121°46'6 9.9
2018-May-25 12:22N 31°16' E 121°53'4 9.9
2018-May-25 11:56N 31°15' E 121°58'410.3
2018-May-25 11:30N 31°14' E 122°03'610.8
2018-May-25 10:57N 31°12' E 122°09'510.6
2018-May-25 10:30N 31°09' E 122°13'611.6
2018-May-25 10:00N 31°06' E 122°19'611.1
2018-May-25 09:30N 31°07' E 122°26'23 1.5
2018-May-24 17:50N 31°01' E 122°52'2711.6
2018-May-24 15:33N 30°37' E 123°04'116.8
2018-May-24 15:30N 30°36' E 123°05'916.9
2018-May-24 15:00N 30°28' E 123°06'816.7
2018-May-24 14:30N 30°19' E 123°05'917.5
2018-May-24 13:59N 30°11' E 123°02'  

Dump ship's entire track history